KMCN/MCN METAR and TAF weather

Enter ICAO airport designator
Station Type Date Time Source
KMCN METAR 2020/07/11 16:53 UTC NOAA

KMCN 111653Z 34007KT 280V010 10SM CLR 33/20 A2989 RMK AO2 SLP116 T03280200


Station Type Date Time Source
KMCN Decoded METAR 2020/07/11 16:53 UTC NOAA

MIDDLE GEORGIA REGIONAL AIRPORT , GA, United States (KMCN) 32-41N 83-39W 109M
Jul 11, 2020 - 12:53 PM EDT / 2020.07.11 1653 UTC
Wind: from the NNW (340 degrees) at 8 MPH (7 KT) (direction variable):0
Visibility: 10 mile(s):0
Sky conditions: clear
Temperature: 91.0 F (32.8 C)
Heat index: 94.6 F (34.8 C):1
Dew Point: 68.0 F (20.0 C)
Relative Humidity: 46%
Pressure (altimeter): 29.89 in. Hg (1012 hPa)
ob: KMCN 111653Z 34007KT 280V010 10SM CLR 33/20 A2989 RMK AO2 SLP116 T03280200
cycle: 17

Station Type Date Time Source
KMCN TAF 2020/07/11 14:12 UTC NOAA

TAF
AMD KMCN 111410Z 1114/1212 32008KT P6SM SKC
FM120000 31004KT P6SM FEW250

Example: see airport list